Time;durP1;ratioP1;P1;durP2;ratioP2;P2;SDS_P1;SDS_P2;PMS_P1;PMS_P2;Temp;Humidity;BMP_temperature;BMP_pressure;BME280_temperature;BME280_humidity;BME280_pressure;Samples;Min_cycle;Max_cycle;Signal;HPM_P1;HPM_P2
2023/09/07 00:00:38;;;;;;;10.60;7.32;;;22.90;73.50;;;;;;5032953;28;20338;-60
2023/09/07 00:03:06;;;;;;;9.18;7.38;;;22.90;73.50;;;;;;5032848;28;20295;-61
2023/09/07 00:05:34;;;;;;;10.95;8.25;;;23.00;73.60;;;;;;5033005;28;20223;-60
2023/09/07 00:08:03;;;;;;;11.98;8.07;;;23.00;73.60;;;;;;5032848;28;20220;-61
2023/09/07 00:10:30;;;;;;;10.05;7.78;;;23.00;73.60;;;;;;5032660;28;20310;-62
2023/09/07 00:12:58;;;;;;;11.05;8.90;;;22.90;73.50;;;;;;5033095;28;20192;-60
2023/09/07 00:15:26;;;;;;;10.60;8.65;;;22.90;74.40;;;;;;5032625;28;20220;-61
2023/09/07 00:17:54;;;;;;;11.40;9.10;;;22.90;73.50;;;;;;5032507;28;20220;-58
2023/09/07 00:20:23;;;;;;;12.77;9.30;;;22.90;73.50;;;;;;5032574;28;20184;-58
2023/09/07 00:22:51;;;;;;;13.13;9.40;;;22.90;73.50;;;;;;5045456;28;20223;-60
2023/09/07 00:25:23;;;;;;;12.82;10.15;;;22.90;73.50;;;;;;5052280;28;20199;-61
2023/09/07 00:27:51;;;;;;;13.65;10.57;;;22.90;73.50;;;;;;5052289;28;20188;-61
2023/09/07 00:30:18;;;;;;;13.70;10.48;;;22.90;73.50;;;;;;5052275;28;20191;-59
2023/09/07 00:32:46;;;;;;;17.50;11.45;;;22.90;73.60;;;;;;5052302;28;20278;-59
2023/09/07 00:35:14;;;;;;;14.05;10.88;;;22.90;73.50;;;;;;5052163;28;20283;-60
2023/09/07 00:37:41;;;;;;;13.35;10.45;;;23.00;73.70;;;;;;5052343;28;20192;-60
2023/09/07 00:40:09;;;;;;;15.90;11.27;;;22.90;73.60;;;;;;5051647;28;20192;-57
2023/09/07 00:42:39;;;;;;;16.13;11.05;;;22.90;73.60;;;;;;5052221;28;20191;-59
2023/09/07 00:45:27;;;;;;;16.50;10.90;;;22.90;73.60;;;;;;5051892;28;20191;-61
2023/09/07 00:47:56;;;;;;;15.52;11.77;;;22.90;73.70;;;;;;5051977;28;20279;-61
2023/09/07 00:50:23;;;;;;;17.58;12.43;;;22.90;73.60;;;;;;5052008;28;20187;-61
2023/09/07 00:52:51;;;;;;;16.58;12.15;;;22.90;73.60;;;;;;5051145;28;20192;-60
2023/09/07 00:55:19;;;;;;;14.88;10.48;;;22.90;73.60;;;;;;5051533;28;20188;-61
2023/09/07 00:57:48;;;;;;;16.25;11.52;;;22.80;73.50;;;;;;5051906;28;20188;-60
2023/09/07 01:00:16;;;;;;;16.08;12.30;;;22.80;73.50;;;;;;5051457;28;20192;-61
2023/09/07 01:02:44;;;;;;;14.85;11.55;;;22.90;73.60;;;;;;5051439;28;20194;-61
2023/09/07 01:05:12;;;;;;;17.38;12.50;;;22.90;73.60;;;;;;5051732;28;20833;-61
2023/09/07 01:07:47;;;;;;;16.15;12.48;;;22.90;73.60;;;;;;5051694;28;20187;-56
2023/09/07 01:10:15;;;;;;;18.70;12.93;;;22.80;73.50;;;;;;5051308;28;20219;-60
2023/09/07 01:12:53;;;;;;;16.63;12.73;;;22.80;73.50;;;;;;5051465;28;20188;-59
2023/09/07 01:18:26;;;;;;;16.83;12.85;;;22.80;73.60;;;;;;4995215;28;20265;-59
2023/09/07 01:20:55;;;;;;;18.48;13.88;;;22.80;73.50;;;;;;5051528;28;20220;-60
2023/09/07 01:23:24;;;;;;;16.15;12.55;;;22.80;73.50;;;;;;5051358;28;20231;-59
2023/09/07 01:25:53;;;;;;;16.98;13.02;;;22.80;73.60;;;;;;5051000;28;20325;-61
2023/09/07 01:28:21;;;;;;;18.33;13.68;;;22.80;73.50;;;;;;5051038;28;20278;-60
2023/09/07 01:30:49;;;;;;;19.67;13.50;;;22.80;73.60;;;;;;5051143;28;20319;-60
2023/09/07 01:33:16;;;;;;;18.17;13.70;;;22.80;73.60;;;;;;5051181;28;20187;-61
2023/09/07 01:35:43;;;;;;;18.88;13.77;;;22.80;73.60;;;;;;5051121;28;20221;-60
2023/09/07 01:38:11;;;;;;;20.33;13.57;;;22.80;73.60;;;;;;5051059;28;20192;-61
2023/09/07 01:40:39;;;;;;;21.30;13.80;;;22.80;73.60;;;;;;5051032;28;20302;-61
2023/09/07 01:43:07;;;;;;;19.00;14.02;;;22.80;73.60;;;;;;5051233;28;20192;-61
2023/09/07 01:49:19;;;;;;;18.17;13.25;;;22.80;73.60;;;;;;5050899;28;20203;-60
2023/09/07 01:51:52;;;;;;;19.20;14.20;;;22.70;73.50;;;;;;5051166;28;20228;-60
2023/09/07 01:54:19;;;;;;;19.20;14.02;;;22.70;73.50;;;;;;5050659;28;20188;-60
2023/09/07 01:56:48;;;;;;;19.17;14.10;;;22.80;73.60;;;;;;5050806;28;20219;-59
2023/09/07 01:59:15;;;;;;;20.13;14.07;;;22.80;73.70;;;;;;5050613;28;20195;-61
2023/09/07 02:01:42;;;;;;;19.35;13.70;;;22.80;73.60;;;;;;5050372;28;20226;-59
2023/09/07 02:04:10;;;;;;;18.58;14.48;;;22.80;73.60;;;;;;5050663;28;20192;-60
2023/09/07 02:06:37;;;;;;;19.65;14.82;;;22.80;73.60;;;;;;5050305;28;20314;-60
2023/09/07 02:09:06;;;;;;;18.95;13.98;;;22.80;73.60;;;;;;5050123;28;20220;-61
2023/09/07 02:11:35;;;;;;;21.92;15.07;;;22.80;73.60;;;;;;5050422;28;20223;-60
2023/09/07 02:14:04;;;;;;;20.83;14.48;;;22.80;74.40;;;;;;5050422;28;20222;-60
2023/09/07 02:16:37;;;;;;;20.88;14.45;;;22.80;73.60;;;;;;5050230;28;20218;-60
2023/09/07 02:19:07;;;;;;;20.58;14.65;;;22.80;73.60;;;;;;5050365;28;20188;-60
2023/09/07 02:21:34;;;;;;;19.63;15.00;;;22.70;73.50;;;;;;5050188;28;20269;-60
2023/09/07 02:24:01;;;;;;;18.55;13.98;;;22.80;73.60;;;;;;5050052;28;20184;-59
2023/09/07 02:26:28;;;;;;;19.73;14.80;;;22.80;73.60;;;;;;5050310;28;20231;-59
2023/09/07 02:28:56;;;;;;;20.23;14.32;;;22.70;73.50;;;;;;5050196;28;20227;-61
2023/09/07 02:31:25;;;;;;;20.83;15.45;;;22.80;73.60;;;;;;5050053;28;20653;-60
2023/09/07 02:33:53;;;;;;;20.80;14.73;;;22.80;73.70;;;;;;5050040;28;20274;-60
2023/09/07 02:36:54;;;;;;;18.15;13.77;;;22.80;73.60;;;;;;5050187;28;20222;-59
2023/09/07 02:42:36;;;;;;;20.75;15.05;;;22.80;73.60;;;;;;5018899;28;20227;-60
2023/09/07 02:45:04;;;;;;;22.05;14.73;;;22.70;73.50;;;;;;5049921;28;20207;-56
2023/09/07 02:47:33;;;;;;;20.98;14.45;;;22.70;73.60;;;;;;5049511;28;20269;-60
2023/09/07 02:50:00;;;;;;;20.50;14.23;;;22.70;73.60;;;;;;5049743;28;20220;-59
2023/09/07 02:52:28;;;;;;;19.05;13.77;;;22.70;73.60;;;;;;5049723;28;20220;-58
2023/09/07 02:54:55;;;;;;;20.92;14.93;;;22.70;73.50;;;;;;5049573;28;20274;-59
2023/09/07 02:57:23;;;;;;;19.48;14.90;;;22.70;73.50;;;;;;5049833;28;20323;-60
2023/09/07 02:59:50;;;;;;;18.25;13.57;;;22.70;73.50;;;;;;5049666;28;20223;-60
2023/09/07 03:02:18;;;;;;;18.92;14.48;;;22.70;73.50;;;;;;5049661;28;20220;-61
2023/09/07 03:04:47;;;;;;;19.88;14.60;;;22.70;73.50;;;;;;5049631;28;20226;-60
2023/09/07 03:07:14;;;;;;;20.25;15.00;;;22.70;73.60;;;;;;5049537;28;20219;-61
2023/09/07 03:09:42;;;;;;;18.70;14.48;;;22.60;73.40;;;;;;5049424;28;20204;-59
2023/09/07 03:12:09;;;;;;;22.08;14.70;;;22.70;73.50;;;;;;5049773;28;20734;-61
2023/09/07 03:14:37;;;;;;;18.25;14.40;;;22.70;74.30;;;;;;5049078;28;20279;-58
2023/09/07 03:17:04;;;;;;;21.98;14.70;;;22.70;73.50;;;;;;5049376;28;20212;-61
2023/09/07 03:19:32;;;;;;;21.38;14.73;;;22.70;73.50;;;;;;5049377;28;20233;-61
2023/09/07 03:22:01;;;;;;;24.70;16.23;;;22.80;73.60;;;;;;5049325;28;20238;-59
2023/09/07 03:24:28;;;;;;;19.35;14.85;;;22.70;73.50;;;;;;5049219;28;20286;-59
2023/09/07 03:26:56;;;;;;;19.80;14.85;;;22.70;73.50;;;;;;5049414;28;20604;-61
2023/09/07 03:29:39;;;;;;;21.52;16.08;;;22.60;73.40;;;;;;5049328;28;20306;-59
2023/09/07 03:32:08;;;;;;;21.27;15.32;;;22.70;73.50;;;;;;5047057;28;20215;-60
2023/09/07 03:34:36;;;;;;;19.80;14.93;;;22.60;73.50;;;;;;5053658;28;20249;-61
2023/09/07 03:37:06;;;;;;;22.00;14.57;;;22.70;73.60;;;;;;5069250;28;20310;-60
2023/09/07 03:39:33;;;;;;;21.13;15.38;;;22.70;73.60;;;;;;5069065;28;20683;-61
2023/09/07 03:42:01;;;;;;;20.13;15.48;;;22.60;73.40;;;;;;5069399;28;20301;-61
2023/09/07 03:44:28;;;;;;;21.90;15.40;;;22.70;73.50;;;;;;5069309;28;20190;-60
2023/09/07 03:46:56;;;;;;;22.85;15.45;;;22.70;73.50;;;;;;5069259;28;20215;-61
2023/09/07 03:49:23;;;;;;;21.38;15.25;;;22.70;73.50;;;;;;5069196;28;20211;-61
2023/09/07 03:51:50;;;;;;;21.40;15.38;;;22.70;73.50;;;;;;5069207;28;20254;-60
2023/09/07 03:54:19;;;;;;;23.80;16.60;;;22.60;73.40;;;;;;5068967;28;20183;-59
2023/09/07 03:56:57;;;;;;;21.27;15.13;;;22.70;73.50;;;;;;5069280;28;20250;-58
2023/09/07 03:59:44;;;;;;;21.50;15.55;;;22.70;73.50;;;;;;5003123;28;20669;-59
2023/09/07 04:02:12;;;;;;;21.73;15.38;;;22.70;73.50;;;;;;5053130;28;20322;-61
2023/09/07 04:04:40;;;;;;;22.75;15.73;;;22.70;73.50;;;;;;5069115;28;20194;-61
2023/09/07 04:07:10;;;;;;;21.73;15.15;;;22.60;73.40;;;;;;5069236;28;20229;-59
2023/09/07 04:09:39;;;;;;;22.13;16.42;;;22.70;73.50;;;;;;5069150;28;20342;-60
2023/09/07 04:12:07;;;;;;;21.17;15.88;;;22.60;73.40;;;;;;5068998;28;20211;-61
2023/09/07 04:14:35;;;;;;;25.20;16.98;;;22.60;73.40;;;;;;5068757;28;20270;-60
2023/09/07 04:17:02;;;;;;;21.95;15.70;;;22.60;73.40;;;;;;5069050;28;20214;-58
2023/09/07 04:19:30;;;;;;;21.98;16.02;;;22.60;73.40;;;;;;5068920;28;20268;-60
2023/09/07 04:21:58;;;;;;;21.25;15.38;;;22.70;73.50;;;;;;5068515;28;20322;-60
2023/09/07 04:24:27;;;;;;;21.27;15.73;;;22.60;73.40;;;;;;5068804;28;20199;-60
2023/09/07 04:26:59;;;;;;;20.95;15.82;;;22.60;73.40;;;;;;5070195;28;20321;-60
2023/09/07 04:29:27;;;;;;;23.15;15.73;;;22.60;73.40;;;;;;5072027;28;20210;-60
2023/09/07 04:31:54;;;;;;;21.77;16.27;;;22.70;73.50;;;;;;5072421;28;20211;-59
2023/09/07 04:34:22;;;;;;;25.25;16.42;;;22.60;73.40;;;;;;5072302;28;20195;-61
2023/09/07 04:36:50;;;;;;;22.40;16.98;;;22.60;73.40;;;;;;5072230;28;20214;-59
2023/09/07 04:39:17;;;;;;;24.83;16.77;;;22.60;73.30;;;;;;5072159;28;20262;-59
2023/09/07 04:41:45;;;;;;;21.83;16.15;;;22.60;73.40;;;;;;5072350;28;20215;-61
2023/09/07 04:44:14;;;;;;;24.85;17.20;;;22.60;73.40;;;;;;5072135;28;20187;-59
2023/09/07 04:46:41;;;;;;;21.02;15.82;;;22.70;73.50;;;;;;5072400;28;20218;-60
2023/09/07 04:49:08;;;;;;;26.33;16.40;;;22.70;73.50;;;;;;5072040;28;20190;-61
2023/09/07 04:51:36;;;;;;;23.13;16.45;;;22.60;73.40;;;;;;5071738;28;20226;-60
2023/09/07 04:54:03;;;;;;;23.02;15.68;;;22.60;73.40;;;;;;5072030;28;20273;-60
2023/09/07 04:56:30;;;;;;;23.60;16.73;;;22.60;73.30;;;;;;5071843;28;20218;-61
2023/09/07 04:58:57;;;;;;;24.48;17.38;;;22.60;73.40;;;;;;5071669;28;20195;-59
2023/09/07 05:01:26;;;;;;;22.70;16.90;;;22.60;73.30;;;;;;5071819;28;20219;-56
2023/09/07 05:03:54;;;;;;;22.75;16.73;;;22.60;73.40;;;;;;5071654;28;20191;-60
2023/09/07 05:06:22;;;;;;;22.10;16.83;;;22.60;73.40;;;;;;5071556;28;20670;-59
2023/09/07 05:08:50;;;;;;;21.38;15.63;;;22.60;73.30;;;;;;5071581;28;20195;-60
2023/09/07 05:11:17;;;;;;;22.95;17.33;;;22.60;73.30;;;;;;5071624;28;20235;-61
2023/09/07 05:13:45;;;;;;;21.52;16.48;;;22.60;73.40;;;;;;5071391;28;20190;-59
2023/09/07 05:16:29;;;;;;;23.00;17.38;;;22.60;73.40;;;;;;5071508;28;20305;-58
2023/09/07 05:19:24;;;;;;;22.35;16.83;;;22.60;73.40;;;;;;5069326;28;20301;-60
2023/09/07 05:21:51;;;;;;;22.13;16.20;;;22.60;73.40;;;;;;5071249;28;20326;-61
2023/09/07 05:24:18;;;;;;;26.08;18.45;;;22.60;73.40;;;;;;5071595;28;20195;-60
2023/09/07 05:26:48;;;;;;;23.15;16.95;;;22.60;73.40;;;;;;5071554;28;20230;-59
2023/09/07 05:29:16;;;;;;;23.67;16.95;;;22.60;73.40;;;;;;5070896;28;20279;-56
2023/09/07 05:31:45;;;;;;;23.50;16.52;;;22.60;73.40;;;;;;5071268;28;20231;-61
2023/09/07 05:34:12;;;;;;;24.88;18.13;;;22.50;73.20;;;;;;5071163;28;20191;-61
2023/09/07 05:36:40;;;;;;;25.95;17.80;;;22.60;73.40;;;;;;5071042;28;20280;-60
2023/09/07 05:39:07;;;;;;;22.17;17.00;;;22.60;73.40;;;;;;5070578;28;20285;-60
2023/09/07 05:41:35;;;;;;;21.92;16.17;;;22.60;73.40;;;;;;5071211;28;20264;-60
2023/09/07 05:44:05;;;;;;;22.95;17.60;;;22.60;73.40;;;;;;5070605;28;20222;-59
2023/09/07 05:46:32;;;;;;;22.55;16.98;;;22.50;73.20;;;;;;5070887;28;20246;-60
2023/09/07 05:49:04;;;;;;;22.60;16.92;;;22.60;73.40;;;;;;5070946;28;20191;-58
2023/09/07 05:51:31;;;;;;;23.77;17.25;;;22.60;73.40;;;;;;5070579;28;20322;-61
2023/09/07 05:53:59;;;;;;;24.23;17.27;;;22.60;73.40;;;;;;5070710;28;20187;-61
2023/09/07 05:56:27;;;;;;;26.95;18.42;;;22.50;73.20;;;;;;5070802;28;20215;-59
2023/09/07 05:58:54;;;;;;;23.23;17.10;;;22.50;73.20;;;;;;5070312;28;20191;-59
2023/09/07 06:01:22;;;;;;;22.52;17.25;;;22.50;73.20;;;;;;5070440;28;20226;-57
2023/09/07 06:03:52;;;;;;;26.02;17.60;;;22.60;73.40;;;;;;5070649;28;20294;-60
2023/09/07 06:06:21;;;;;;;23.42;17.85;;;22.60;73.40;;;;;;5070353;28;20186;-61
2023/09/07 06:12:37;;;;;;;24.35;17.75;;;22.50;73.30;;;;;;5070552;28;20285;-61
2023/09/07 06:15:06;;;;;;;26.30;18.10;;;22.60;73.40;;;;;;5070298;28;20273;-57
2023/09/07 06:17:33;;;;;;;23.27;17.73;;;22.50;73.20;;;;;;5070369;28;20218;-60
2023/09/07 06:20:01;;;;;;;23.40;17.90;;;22.50;73.30;;;;;;5070129;28;20278;-59
2023/09/07 06:22:29;;;;;;;26.52;18.13;;;22.50;73.30;;;;;;5067846;28;20243;-59
2023/09/07 06:24:56;;;;;;;23.00;17.70;;;22.50;73.30;;;;;;5070283;28;20241;-60
2023/09/07 06:27:24;;;;;;;24.65;19.02;;;22.50;73.20;;;;;;5070025;28;20211;-60
2023/09/07 06:29:52;;;;;;;25.75;18.05;;;22.60;73.40;;;;;;5069976;28;20199;-59
2023/09/07 06:32:19;;;;;;;24.13;18.98;;;22.50;73.30;;;;;;5070123;28;20215;-59
2023/09/07 06:34:47;;;;;;;25.67;18.35;;;22.50;73.20;;;;;;5069953;28;20230;-57
2023/09/07 06:37:14;;;;;;;28.83;17.27;;;22.50;73.20;;;;;;5054084;28;20273;-62
2023/09/07 06:42:35;;;;;;;;;;;;;;;;;;;;;
2023/09/07 06:45:39;;;;;;;26.80;17.52;;;22.60;73.30;;;;;;4989601;28;20217;-60
2023/09/07 06:48:07;;;;;;;29.13;18.20;;;22.60;73.20;;;;;;5067906;28;20253;-60
2023/09/07 06:50:35;;;;;;;24.05;17.35;;;22.60;73.20;;;;;;5055193;28;20209;-59
2023/09/07 06:53:12;;;;;;;24.23;18.95;;;22.60;73.20;;;;;;5064134;28;20214;-59
2023/09/07 06:55:43;;;;;;;29.20;19.02;;;22.60;73.20;;;;;;5054436;28;20377;-61
2023/09/07 06:58:11;;;;;;;25.35;18.05;;;22.70;73.40;;;;;;5067593;28;20333;-61
2023/09/07 07:04:18;;;;;;;36.70;25.45;;;22.70;73.20;;;;;;5049618;28;20715;-58
2023/09/07 07:06:46;;;;;;;34.47;25.65;;;22.70;73.40;;;;;;5056069;28;20719;-59
2023/09/07 07:09:14;;;;;;;59.75;33.00;;;22.80;73.50;;;;;;5066138;28;20187;-55
2023/09/07 07:11:45;;;;;;;58.55;38.40;;;22.80;73.40;;;;;;5059608;28;20935;-59
2023/09/07 07:14:13;;;;;;;55.17;38.47;;;22.80;73.60;;;;;;5059851;28;20281;-58
2023/09/07 07:16:40;;;;;;;60.80;38.17;;;22.80;73.70;;;;;;5058372;28;20203;-59
2023/09/07 07:19:08;;;;;;;58.20;38.80;;;22.90;73.80;;;;;;5062780;28;20199;-55
2023/09/07 07:21:35;;;;;;;75.05;42.72;;;22.90;73.80;;;;;;5054200;28;20252;-55
2023/09/07 07:24:17;;;;;;;60.72;40.42;;;23.00;73.90;;;;;;5027654;28;20191;-60
2023/09/07 07:26:47;;;;;;;63.25;43.55;;;23.00;73.90;;;;;;5025919;28;20204;-60
2023/09/07 07:29:14;;;;;;;65.45;43.20;;;23.00;73.80;;;;;;5024584;28;20204;-62
2023/09/07 07:32:12;;;;;;;;;;;;;;;;;;;;;
2023/09/07 07:34:41;;;;;;;65.18;42.70;;;23.10;73.70;;;;;;5008939;28;20202;-62
2023/09/07 07:37:15;;;;;;;69.38;43.83;;;23.20;73.70;;;;;;5024364;28;20300;-62
2023/09/07 07:39:42;;;;;;;70.43;46.13;;;23.20;73.70;;;;;;5012276;28;20189;-63
2023/09/07 07:42:12;;;;;;;67.65;44.72;;;23.30;73.80;;;;;;5023160;28;20227;-61
2023/09/07 08:14:46;;;;;;;58.90;38.25;;;23.50;74.20;;;;;;4916228;29;20284;-61
2023/09/07 08:17:14;;;;;;;60.28;39.22;;;23.40;74.20;;;;;;4928100;29;20224;-60
2023/09/07 08:20:11;;;;;;;59.90;38.70;;;23.50;74.30;;;;;;4932802;29;20204;-61
2023/09/07 08:26:12;;;;;;;55.92;35.22;;;23.50;74.30;;;;;;4868873;29;20246;-59
2023/09/07 08:38:53;;;;;;;54.60;34.20;;;23.60;74.60;;;;;;4908826;28;20335;-63
2023/09/07 08:41:22;;;;;;;53.92;33.33;;;23.60;74.50;;;;;;4950050;28;20203;-63
2023/09/07 08:43:58;;;;;;;53.13;33.25;;;23.70;74.70;;;;;;4949042;28;20262;-62
2023/09/07 08:46:29;;;;;;;46.85;29.67;;;23.80;74.80;;;;;;4943740;28;20290;-63
2023/09/07 08:55:15;;;;;;;41.15;27.00;;;23.80;74.70;;;;;;4990794;28;20264;-63
2023/09/07 08:57:46;;;;;;;50.40;31.38;;;23.80;74.50;;;;;;5009268;28;20225;-63
2023/09/07 09:00:16;;;;;;;46.97;31.10;;;23.80;74.60;;;;;;5007225;28;20190;-64
2023/09/07 09:05:36;;;;;;;45.05;31.63;;;23.90;74.40;;;;;;4990376;28;20201;-61
2023/09/07 09:08:23;;;;;;;;;;;;;;;;;;;;;
2023/09/07 09:11:03;;;;;;;48.28;31.10;;;24.00;74.30;;;;;;4940868;28;20222;-62
2023/09/07 09:16:42;;;;;;;49.53;31.92;;;24.00;74.30;;;;;;5006016;28;20216;-59
2023/09/07 09:19:10;;;;;;;49.92;32.30;;;24.00;74.30;;;;;;5039811;28;20716;-63
2023/09/07 09:21:37;;;;;;;51.78;33.90;;;24.00;74.20;;;;;;5049815;28;20196;-63
2023/09/07 09:24:11;;;;;;;53.00;31.85;;;24.00;74.20;;;;;;5070930;28;20230;-62
2023/09/07 09:29:59;;;;;;;43.90;30.45;;;24.00;74.30;;;;;;4986295;28;20257;-64
2023/09/07 09:32:44;;;;;;;50.65;30.23;;;24.00;74.20;;;;;;4970837;28;20215;-63
2023/09/07 09:35:33;;;;;;;50.45;29.92;;;24.10;74.50;;;;;;4954655;28;20428;-63
2023/09/07 09:38:05;;;;;;;43.72;27.77;;;24.10;74.40;;;;;;4971554;28;20242;-61
2023/09/07 09:43:29;;;;;;;35.90;26.25;;;24.10;74.40;;;;;;4911122;28;20359;-63
2023/09/07 09:46:08;;;;;;;34.88;24.85;;;24.00;74.30;;;;;;4998097;28;20190;-62
2023/09/07 09:48:37;;;;;;;39.13;25.25;;;24.00;74.30;;;;;;5009938;28;20307;-63
2023/09/07 09:51:25;;;;;;;33.85;23.88;;;24.00;74.20;;;;;;4988431;28;20214;-64
2023/09/07 09:56:46;;;;;;;33.90;21.92;;;24.00;74.00;;;;;;4907770;28;20218;-64
2023/09/07 09:59:17;;;;;;;34.80;25.52;;;24.00;74.00;;;;;;4990173;28;20308;-63
2023/09/07 10:01:50;;;;;;;38.08;27.13;;;24.00;74.20;;;;;;5066675;28;20202;-63
2023/09/07 10:04:19;;;;;;;45.70;27.77;;;24.00;74.40;;;;;;5059807;28;20227;-64
2023/09/07 10:07:06;;;;;;;37.95;26.52;;;24.00;74.70;;;;;;5054705;28;20198;-61
2023/09/07 10:09:44;;;;;;;;;;;;;;;;;;;;;
2023/09/07 10:15:45;;;;;;;42.83;27.33;;;23.90;75.20;;;;;;5057678;28;20226;-63
2023/09/07 10:18:19;;;;;;;42.42;29.02;;;24.00;75.50;;;;;;5059100;28;20211;-64
2023/09/07 10:20:52;;;;;;;39.17;28.65;;;23.90;75.40;;;;;;5069316;28;20194;-64
2023/09/07 10:33:04;;;;;;;38.72;24.48;;;23.90;75.70;;;;;;5058300;28;20234;-64
2023/09/07 10:42:32;;;;;;;43.60;27.25;;;23.90;75.70;;;;;;4982860;28;20264;-65
2023/09/07 10:45:27;;;;;;;39.22;26.77;;;24.00;75.80;;;;;;4981285;28;20312;-63
2023/09/07 10:47:54;;;;;;;39.70;26.90;;;24.00;75.80;;;;;;4942693;28;20280;-63
2023/09/07 10:50:22;;;;;;;36.67;25.73;;;24.00;75.80;;;;;;4988556;28;20229;-64
2023/09/07 10:55:41;;;;;;;43.75;27.33;;;24.00;75.80;;;;;;4989523;28;20225;-64
2023/09/07 11:04:16;;;;;;;34.55;24.52;;;24.00;75.80;;;;;;4969054;28;20289;-63
2023/09/07 11:07:18;;;;;;;31.88;23.45;;;24.10;75.90;;;;;;4936355;29;20211;-63
2023/09/07 11:13:03;;;;;;;28.45;21.80;;;24.10;75.80;;;;;;4975251;28;20228;-63
2023/09/07 11:22:15;;;;;;;21.02;14.23;;;24.20;75.60;;;;;;5045303;28;20338;-63
2023/09/07 11:27:26;;;;;;;23.92;12.27;;;24.10;74.80;;;;;;5053099;28;20195;-64
2023/09/07 11:29:54;;;;;;;23.27;12.15;;;24.10;74.80;;;;;;5068140;28;20812;-64
2023/09/07 11:32:25;;;;;;;15.13;12.13;;;24.20;74.80;;;;;;5067854;28;20225;-63
2023/09/07 11:34:54;;;;;;;18.17;12.75;;;24.20;74.60;;;;;;5064179;28;20260;-63
2023/09/07 11:37:25;;;;;;;15.27;11.70;;;24.20;74.40;;;;;;5065978;28;20252;-61
2023/09/07 11:39:53;;;;;;;14.65;11.25;;;24.20;74.40;;;;;;5070727;28;20246;-64
2023/09/07 11:45:03;;;;;;;14.35;10.38;;;24.20;74.10;;;;;;5069723;28;20709;-64
2023/09/07 11:47:31;;;;;;;13.93;9.38;;;24.30;74.10;;;;;;5070336;28;20195;-62
2023/09/07 11:52:41;;;;;;;15.32;9.10;;;24.30;73.60;;;;;;5054019;28;20673;-64
2023/09/07 11:55:10;;;;;;;13.40;8.80;;;24.30;73.40;;;;;;5057701;28;20302;-64
2023/09/07 11:57:38;;;;;;;10.95;8.52;;;24.30;73.30;;;;;;5054320;28;20200;-64
2023/09/07 12:00:10;;;;;;;18.52;10.38;;;24.20;73.20;;;;;;5079671;28;20228;-63
2023/09/07 12:06:03;;;;;;;200.30;109.68;;;24.20;72.80;;;;;;5052250;28;20218;-57
2023/09/07 12:08:38;;;;;;;269.60;154.32;;;24.20;72.90;;;;;;5051906;28;20275;-62
2023/09/07 12:11:05;;;;;;;191.50;114.32;;;24.30;72.90;;;;;;5036224;28;20218;-64
2023/09/07 12:13:33;;;;;;;142.57;88.97;;;24.40;72.70;;;;;;5059105;28;20231;-64
2023/09/07 12:16:06;;;;;;;132.30;83.35;;;24.30;73.30;;;;;;5071305;28;20221;-63
2023/09/07 12:18:33;;;;;;;133.23;82.45;;;24.40;73.30;;;;;;5058679;28;20222;-64
2023/09/07 12:21:05;;;;;;;114.57;72.85;;;24.40;72.50;;;;;;5052550;28;20227;-63
2023/09/07 12:23:37;;;;;;;81.90;50.50;;;24.40;72.60;;;;;;5064020;28;20233;-63
2023/09/07 12:26:08;;;;;;;70.78;43.13;;;24.40;72.70;;;;;;5058475;28;20230;-63
2023/09/07 12:28:44;;;;;;;67.10;41.60;;;24.40;72.80;;;;;;5055935;28;20571;-64
2023/09/07 12:31:42;;;;;;;49.65;32.50;;;24.50;72.70;;;;;;5050070;28;20309;-63
2023/09/07 12:45:05;;;;;;;36.33;21.35;;;24.60;72.70;;;;;;5051912;28;20394;-65
2023/09/07 12:47:37;;;;;;;31.83;19.38;;;24.70;72.70;;;;;;5032829;28;21082;-65
2023/09/07 12:56:56;;;;;;;35.03;16.63;;;24.70;72.40;;;;;;4942635;28;20221;-65
2023/09/07 12:59:49;;;;;;;28.95;16.35;;;24.70;72.20;;;;;;5047088;28;20194;-64
2023/09/07 13:02:26;;;;;;;26.30;14.20;;;24.80;72.10;;;;;;5042222;28;20199;-64
2023/09/07 13:04:56;;;;;;;23.55;13.55;;;24.80;71.20;;;;;;5046643;28;20260;-64
2023/09/07 13:07:24;;;;;;;18.95;13.35;;;24.80;71.00;;;;;;5048924;28;20210;-65
2023/09/07 13:19:45;;;;;;;24.08;11.98;;;24.70;70.40;;;;;;4971972;28;20237;-65
2023/09/07 13:22:14;;;;;;;26.02;12.77;;;24.80;71.00;;;;;;4983951;28;20286;-65
2023/09/07 13:27:48;;;;;;;25.00;12.15;;;24.80;70.90;;;;;;4935888;28;20289;-65
2023/09/07 13:30:15;;;;;;;21.38;12.40;;;24.80;71.80;;;;;;4957612;28;20230;-65
2023/09/07 13:35:25;;;;;;;26.13;11.88;;;24.80;70.90;;;;;;4952563;28;20998;-65
2023/09/07 13:48:36;;;;;;;;;;;;;;;;;;;;;
2023/09/07 13:51:15;;;;;;;17.60;11.30;;;24.90;71.00;;;;;;4953398;28;20251;-64
2023/09/07 13:53:58;;;;;;;23.60;11.73;;;24.90;70.70;;;;;;4957550;28;20239;-64
2023/09/07 13:56:29;;;;;;;19.98;11.52;;;24.90;70.60;;;;;;5003525;28;20227;-64
2023/09/07 13:59:00;;;;;;;19.50;10.57;;;24.90;70.30;;;;;;5004210;28;20288;-64
2023/09/07 14:22:04;;;;;;;19.73;11.52;;;24.80;71.10;;;;;;4954691;28;20259;-64
2023/09/07 14:24:58;;;;;;;16.73;12.55;;;24.80;71.10;;;;;;4998174;28;20237;-63
2023/09/07 14:27:34;;;;;;;19.83;13.10;;;24.80;71.10;;;;;;5002831;28;20228;-61
2023/09/07 14:30:04;;;;;;;23.10;14.10;;;24.80;71.00;;;;;;5039941;28;20755;-64
2023/09/07 14:32:48;;;;;;;;;;;;;;;;;;;;;
2023/09/07 14:35:18;;;;;;;24.98;13.35;;;24.70;70.90;;;;;;5033348;28;20338;-63
2023/09/07 14:37:53;;;;;;;22.42;14.65;;;24.80;71.10;;;;;;5040930;28;20609;-65
2023/09/07 14:43:16;;;;;;;;;;;;;;;;;;;;;
2023/09/07 15:02:27;;;;;;;;;;;;;;;;;;;;;
2023/09/07 15:05:26;;;;;;;19.58;13.30;;;24.60;71.90;;;;;;4932732;29;20250;-64
2023/09/07 15:11:07;;;;;;;17.15;13.00;;;24.60;71.90;;;;;;4790954;29;20855;-63
2023/09/07 15:47:18;;;;;;;21.85;16.35;;;24.50;72.20;;;;;;4836319;29;20259;-64
2023/09/07 15:53:15;;;;;;;20.77;14.20;;;24.40;72.30;;;;;;4851917;29;20759;-64
2023/09/07 15:56:24;;;;;;;23.65;16.45;;;24.40;72.60;;;;;;4867832;29;20219;-65
2023/09/07 16:02:50;;;;;;;23.00;16.42;;;24.40;72.80;;;;;;4962597;28;21063;-63
2023/09/07 16:05:28;;;;;;;23.38;16.30;;;24.40;73.20;;;;;;4963802;28;20219;-64
2023/09/07 16:12:18;;;;;;;;;;;;;;;;;;;;;
2023/09/07 17:18:06;;;;;;;15.90;11.10;;;24.70;72.60;;;;;;4815734;29;20672;-63
2023/09/07 17:23:29;;;;;;;13.73;11.00;;;24.70;72.70;;;;;;4803814;29;20229;-64
2023/09/07 17:26:02;;;;;;;15.07;10.77;;;24.70;72.70;;;;;;4894889;29;20236;-64
2023/09/07 17:28:29;;;;;;;13.27;10.90;;;24.70;72.70;;;;;;4929422;29;20227;-65
2023/09/07 17:31:02;;;;;;;13.88;11.32;;;24.70;72.70;;;;;;4928909;29;20201;-65
2023/09/07 17:33:39;;;;;;;13.65;11.40;;;24.70;72.80;;;;;;4980979;28;20273;-64
2023/09/07 17:36:17;;;;;;;13.45;10.80;;;24.70;72.80;;;;;;4956058;28;20217;-65
2023/09/07 17:38:45;;;;;;;17.45;11.63;;;24.60;72.70;;;;;;5008905;28;20339;-64
2023/09/07 17:41:28;;;;;;;14.73;11.65;;;24.60;72.70;;;;;;5027030;28;20192;-65
2023/09/07 17:44:36;;;;;;;15.10;11.25;;;24.60;72.70;;;;;;5023816;28;20396;-63
2023/09/07 17:47:32;;;;;;;11.95;10.75;;;24.60;72.80;;;;;;5014128;28;20208;-65
2023/09/07 17:50:00;;;;;;;14.32;11.77;;;24.60;72.80;;;;;;5018367;28;20287;-63
2023/09/07 17:52:39;;;;;;;12.93;11.27;;;24.60;72.70;;;;;;5016994;28;20201;-61
2023/09/07 17:55:09;;;;;;;11.50;10.30;;;24.60;72.70;;;;;;5040262;28;20206;-63
2023/09/07 17:57:38;;;;;;;15.02;10.98;;;24.50;72.60;;;;;;5064424;28;20210;-63
2023/09/07 18:00:46;;;;;;;12.77;10.63;;;24.50;72.70;;;;;;5057948;28;20276;-64
2023/09/07 18:03:20;;;;;;;13.35;11.18;;;24.50;72.70;;;;;;5066168;28;20210;-64
2023/09/07 18:05:49;;;;;;;13.15;10.90;;;24.40;72.70;;;;;;5071135;28;20187;-65
2023/09/07 18:08:17;;;;;;;10.93;9.75;;;24.40;72.70;;;;;;5072767;28;20219;-64
2023/09/07 18:10:44;;;;;;;11.68;9.73;;;24.40;72.80;;;;;;5072293;28;20194;-64
2023/09/07 18:13:11;;;;;;;13.85;10.63;;;24.40;72.80;;;;;;5073160;28;20231;-63
2023/09/07 18:15:39;;;;;;;13.45;9.73;;;24.30;72.70;;;;;;5072783;28;20191;-64
2023/09/07 18:18:07;;;;;;;11.40;9.75;;;24.30;72.80;;;;;;5072790;28;20226;-64
2023/09/07 18:20:36;;;;;;;10.25;9.18;;;24.30;72.80;;;;;;5072584;28;20221;-65
2023/09/07 18:23:04;;;;;;;11.50;10.05;;;24.30;72.80;;;;;;5072431;28;20215;-62
2023/09/07 18:25:35;;;;;;;12.15;9.23;;;24.30;72.80;;;;;;5075083;28;20308;-65
2023/09/07 18:28:02;;;;;;;11.52;10.25;;;24.20;72.80;;;;;;5092798;28;20222;-65
2023/09/07 18:30:30;;;;;;;12.90;9.88;;;24.20;72.80;;;;;;5093067;28;20198;-64
2023/09/07 18:32:58;;;;;;;12.68;9.55;;;24.20;72.80;;;;;;5092308;28;20501;-64